Date,TemperatureHighF,TemperatureAvgF,TemperatureLowF,DewpointHighF,DewpointAvgF,DewpointLowF,HumidityHigh,HumidityAvg,HumidityLow,PressureMaxIn,PressureMinIn,WindSpeedMaxMPH,WindSpeedAvgMPH,GustSpeedMaxMPH,PrecipitationSumIn
2013-12-1,44.0,34.5,29.0,34.0,29.0,25.0,92,81,61,30.14,30.00,4,1,8,0.00
2013-12-2,40.0,35.8,32.0,34.0,31.4,29.0,95,84,70,30.00,29.74,7,4,14,0.05
2013-12-3,46.0,41.0,35.0,45.0,40.0,34.0,98,97,95,29.74,29.65,8,3,13,0.05
2013-12-4,53.0,46.6,33.0,53.0,45.6,30.0,99,97,92,29.73,29.49,12,4,20,0.05
2013-12-5,33.0,22.7,18.0,31.0,17.6,12.0,94,81,74,30.31,29.72,11,5,22,0.01
2013-12-6,18.0,14.5,10.0,13.0,9.2,4.0,83,79,72,30.61,30.29,4,2,12,0.00
2013-12-7,19.0,10.9,5.0,8.0,3.7,-99.9,86,75,59,30.76,30.61,4,1,10,0.00
2013-12-8,22.0,18.5,11.0,21.0,15.1,6.0,94,86,74,30.66,30.00,6,2,13,0.00
2013-12-9,22.0,11.7,-2.0,21.0,7.8,-6.0,94,84,74,30.29,29.99,10,6,19,0.00
2013-12-10,19.0,10.8,-2.0,13.0,5.4,-6.0,85,78,73,30.37,30.08,13,5,26,0.00
2013-12-11,18.0,9.3,-5.0,13.0,4.7,-10.0,91,81,69,30.63,30.32,5,2,11,0.05
2013-12-12,18.0,9.7,-4.0,12.0,4.3,-9.0,84,78,71,30.61,30.27,8,3,16,0.01
2013-12-13,28.0,21.9,11.0,25.0,17.6,8.0,92,84,77,30.28,30.12,6,1,11,0.00
2013-12-14,29.0,25.0,16.0,28.0,21.9,-99.9,95,91,88,30.13,29.95,6,2,12,0.03
2013-12-15,18.0,11.8,9.0,16.0,7.6,5.0,92,83,78,30.18,29.99,8,4,20,0.01
2013-12-16,17.0,13.6,6.0,15.0,9.9,2.0,93,85,74,30.20,30.07,6,2,10,0.00
2013-12-17,32.0,24.0,16.0,27.0,20.2,13.0,95,86,75,30.16,30.01,9,4,17,0.01
2013-12-18,32.0,23.2,14.0,26.0,17.4,10.0,87,79,58,30.18,29.87,9,4,21,0.01
2013-12-19,36.0,33.0,28.0,33.0,30.3,25.0,97,90,84,29.94,29.80,4,0,8,0.15
2013-12-20,34.0,31.3,26.0,33.0,30.3,25.0,97,96,95,29.84,29.75,3,1,9,0.30
2013-12-21,33.0,28.6,26.0,32.0,26.4,-99.9,97,95,95,29.89,29.64,4,2,12,0.01
2013-12-22,33.0,27.3,22.0,32.0,25.6,19.0,96,93,90,30.17,29.62,4,2,10,0.02
2013-12-23,21.0,5.8,-3.0,19.0,2.5,-7.0,92,85,81,30.54,30.16,8,4,14,0.01
2013-12-24,17.0,3.5,-6.0,14.0,-0.4,-10.0,89,84,79,30.66,30.40,6,2,12,0.00
2013-12-25,25.0,22.0,17.0,23.0,19.6,13.0,94,90,84,30.41,30.15,8,4,16,0.00
2013-12-26,33.0,24.8,12.0,30.0,21.5,9.0,90,87,83,30.32,30.16,6,3,14,0.00
2013-12-27,38.0,31.5,21.0,32.0,27.8,19.0,93,86,80,30.32,30.12,6,3,15,0.03
2013-12-28,42.0,36.9,32.0,36.0,31.2,-99.9,92,82,76,30.13,29.83,6,3,14,0.04
2013-12-29,35.0,24.2,9.0,31.0,20.7,3.0,94,86,79,30.25,29.78,6,4,16,0.01
2013-12-30,8.0,3.7,-3.0,3.0,-1.1,-8.0,87,80,74,30.39,30.24,5,1,10,0.00
2013-12-31,10.0,6.3,0.0,7.0,3.2,-3.0,88,86,83,30.43,30.27,4,1,10,0.00